Time;durP1;ratioP1;P1;durP2;ratioP2;P2;SDS_P1;SDS_P2;PMS_P1;PMS_P2;Temp;Humidity;BMP_temperature;BMP_pressure;BME280_temperature;BME280_humidity;BME280_pressure;Samples;Min_cycle;Max_cycle;Signal;HPM_P1;HPM_P2
2023/03/13 00:00:17;;;;;;;0.90;0.70;;;9.00;67.90;;;;;;5051385;28;20103;-83
2023/03/13 00:02:45;;;;;;;1.13;0.93;;;8.90;99.90;;;;;;5052225;28;20045;-82
2023/03/13 00:05:12;;;;;;;1.20;0.65;;;8.70;99.90;;;;;;5051647;28;20041;-82
2023/03/13 00:07:38;;;;;;;4.30;1.80;;;8.70;99.90;;;;;;5051169;28;20049;-81
2023/03/13 00:10:04;;;;;;;4.88;1.38;;;8.60;99.90;;;;;;5050326;28;20044;-82
2023/03/13 00:12:29;;;;;;;0.00;0.00;;;8.50;99.90;;;;;;5049622;28;20120;-82
2023/03/13 00:14:55;;;;;;;0.68;0.65;;;8.50;99.90;;;;;;5051323;28;20091;-81
2023/03/13 00:17:21;;;;;;;1.02;0.85;;;8.40;99.90;;;;;;5050262;28;20041;-82
2023/03/13 00:19:47;;;;;;;11.18;3.90;;;8.50;99.90;;;;;;5049971;28;20045;-82
2023/03/13 00:22:12;;;;;;;3.65;1.13;;;8.40;99.90;;;;;;5049255;28;20562;-81
2023/03/13 00:24:38;;;;;;;1.38;1.30;;;8.40;99.90;;;;;;5049287;28;20494;-82
2023/03/13 00:27:04;;;;;;;8.57;1.52;;;8.30;99.90;;;;;;5048845;28;20045;-81
2023/03/13 00:29:32;;;;;;;5.50;0.55;;;8.30;99.90;;;;;;5047663;28;20056;-82
2023/03/13 00:31:58;;;;;;;6.97;1.55;;;8.30;99.90;;;;;;5047816;28;20120;-82
2023/03/13 00:34:26;;;;;;;2.40;1.40;;;8.30;99.90;;;;;;5047833;28;20103;-82
2023/03/13 00:36:53;;;;;;;0.73;0.57;;;8.30;99.90;;;;;;5048151;28;20073;-81
2023/03/13 00:39:19;;;;;;;4.50;2.20;;;8.30;99.90;;;;;;5047909;28;20048;-81
2023/03/13 00:41:44;;;;;;;0.30;0.30;;;8.40;99.90;;;;;;5048202;28;20076;-82
2023/03/13 00:44:10;;;;;;;0.30;0.30;;;8.30;99.90;;;;;;5052108;28;20124;-81
2023/03/13 00:46:36;;;;;;;0.68;0.45;;;8.30;99.90;;;;;;5052618;28;20075;-81
2023/03/13 00:49:02;;;;;;;15.75;1.17;;;8.30;99.90;;;;;;5051822;28;20057;-81
2023/03/13 00:51:29;;;;;;;0.28;0.28;;;8.30;99.90;;;;;;5053174;28;20056;-81
2023/03/13 00:53:58;;;;;;;0.38;0.30;;;8.20;99.90;;;;;;5052764;28;20049;-82
2023/03/13 00:56:24;;;;;;;0.15;0.15;;;8.20;99.90;;;;;;5052804;28;20052;-81
2023/03/13 00:58:50;;;;;;;0.38;0.25;;;8.30;99.90;;;;;;5053226;28;20103;-81
2023/03/13 01:01:22;;;;;;;0.38;0.38;;;8.30;99.90;;;;;;5052988;28;20041;-81
2023/03/13 01:03:54;;;;;;;6.30;1.55;;;8.30;99.90;;;;;;5052625;28;20045;-81
2023/03/13 01:06:23;;;;;;;2.92;1.35;;;8.20;99.90;;;;;;5053679;28;20040;-81
2023/03/13 01:08:50;;;;;;;0.10;0.10;;;8.20;99.90;;;;;;5053782;28;20060;-81
2023/03/13 01:11:19;;;;;;;0.00;0.00;;;8.20;99.90;;;;;;5052836;28;20045;-81
2023/03/13 01:13:47;;;;;;;1.88;0.98;;;8.20;99.90;;;;;;5052821;28;20056;-80
2023/03/13 01:16:17;;;;;;;0.30;0.30;;;8.20;99.90;;;;;;5053315;28;20068;-81
2023/03/13 01:18:49;;;;;;;1.15;1.05;;;8.20;99.90;;;;;;5053515;28;20626;-81
2023/03/13 01:21:15;;;;;;;0.10;0.10;;;8.10;99.90;;;;;;5053312;28;20049;-81
2023/03/13 01:23:41;;;;;;;2.92;1.08;;;8.20;99.90;;;;;;5052696;28;20045;-81
2023/03/13 01:26:08;;;;;;;0.55;0.55;;;8.10;99.90;;;;;;5051327;28;20048;-81
2023/03/13 01:28:35;;;;;;;8.20;1.35;;;8.10;99.90;;;;;;5051752;28;20037;-82
2023/03/13 01:31:19;;;;;;;3.03;1.27;;;8.10;99.90;;;;;;5051493;28;20048;-81
2023/03/13 01:33:47;;;;;;;1.05;0.95;;;8.20;99.90;;;;;;5051083;28;20562;-82
2023/03/13 01:36:13;;;;;;;0.55;0.55;;;8.20;99.90;;;;;;5050899;28;20076;-82
2023/03/13 01:38:40;;;;;;;2.60;1.60;;;8.20;99.90;;;;;;5049887;28;20041;-82
2023/03/13 01:41:07;;;;;;;0.63;0.63;;;8.20;99.90;;;;;;5051481;28;20546;-82
2023/03/13 01:43:35;;;;;;;1.08;0.85;;;8.30;99.90;;;;;;5052420;28;20041;-81
2023/03/13 01:46:08;;;;;;;0.10;0.10;;;8.30;99.90;;;;;;5051639;28;20044;-82
2023/03/13 01:48:54;;;;;;;2.92;1.65;;;8.30;99.90;;;;;;5052153;28;20088;-81
2023/03/13 01:51:25;;;;;;;0.55;0.55;;;8.30;99.90;;;;;;5052106;28;20056;-81
2023/03/13 01:54:22;;;;;;;2.53;1.30;;;8.40;99.90;;;;;;5050926;28;20053;-81
2023/03/13 01:56:52;;;;;;;1.70;1.58;;;8.40;99.90;;;;;;5051583;28;20045;-81
2023/03/13 01:59:26;;;;;;;0.52;0.47;;;8.50;99.90;;;;;;5052125;28;20340;-82
2023/03/13 02:01:56;;;;;;;0.32;0.32;;;8.40;99.90;;;;;;5051906;28;20049;-81
2023/03/13 02:04:23;;;;;;;0.15;0.08;;;8.40;99.90;;;;;;5052529;28;20049;-82
2023/03/13 02:06:53;;;;;;;0.52;0.52;;;8.40;99.90;;;;;;5052767;28;20049;-81
2023/03/13 02:09:23;;;;;;;0.95;0.70;;;8.40;99.90;;;;;;5050710;28;20057;-82
2023/03/13 02:12:03;;;;;;;1.38;0.52;;;8.40;99.90;;;;;;5052042;28;20049;-81
2023/03/13 02:14:33;;;;;;;5.28;1.27;;;8.40;99.90;;;;;;5052895;28;20051;-82
2023/03/13 02:17:00;;;;;;;0.47;0.47;;;8.50;99.90;;;;;;5052226;28;20059;-82
2023/03/13 02:19:39;;;;;;;1.20;1.10;;;8.50;99.90;;;;;;5052512;28;20098;-81
2023/03/13 02:22:19;;;;;;;0.40;0.32;;;8.50;99.90;;;;;;5051942;28;20053;-82
2023/03/13 02:25:07;;;;;;;0.15;0.15;;;8.50;99.90;;;;;;5047053;28;20155;-81
2023/03/13 02:27:33;;;;;;;0.10;0.10;;;8.50;99.90;;;;;;5032817;28;20053;-82
2023/03/13 02:29:58;;;;;;;0.10;0.10;;;8.50;99.90;;;;;;5049485;28;20436;-82
2023/03/13 02:32:26;;;;;;;4.65;1.92;;;8.50;99.90;;;;;;5052846;28;20069;-82
2023/03/13 02:34:57;;;;;;;0.43;0.43;;;8.50;99.90;;;;;;5052555;28;20048;-82
2023/03/13 02:37:27;;;;;;;0.52;0.52;;;8.60;99.90;;;;;;5052246;28;20522;-83
2023/03/13 02:39:55;;;;;;;0.80;0.70;;;8.50;99.90;;;;;;5053936;28;20052;-83
2023/03/13 02:42:22;;;;;;;0.43;0.43;;;8.60;99.90;;;;;;5053929;28;20064;-83
2023/03/13 02:44:51;;;;;;;0.50;0.50;;;8.50;99.90;;;;;;5052761;28;20579;-83
2023/03/13 02:47:20;;;;;;;1.65;0.20;;;8.50;99.90;;;;;;5053637;28;20061;-83
2023/03/13 02:49:46;;;;;;;0.00;0.00;;;8.50;99.90;;;;;;5054521;28;20045;-83
2023/03/13 02:52:18;;;;;;;3.00;1.08;;;8.60;99.90;;;;;;5052394;28;20055;-83
2023/03/13 02:54:46;;;;;;;0.05;0.05;;;8.70;99.90;;;;;;5053194;28;20037;-83
2023/03/13 02:57:12;;;;;;;1.17;1.08;;;8.70;99.90;;;;;;5052449;28;20644;-84
2023/03/13 02:59:38;;;;;;;0.10;0.10;;;8.70;99.90;;;;;;5051936;28;20044;-83
2023/03/13 03:02:04;;;;;;;0.03;0.03;;;8.70;99.90;;;;;;5053195;28;20107;-83
2023/03/13 03:04:29;;;;;;;0.00;0.00;;;8.70;99.90;;;;;;5049631;28;20048;-83
2023/03/13 03:06:55;;;;;;;8.00;2.17;;;8.80;99.90;;;;;;5049999;28;20071;-84
2023/03/13 03:09:22;;;;;;;0.20;0.20;;;8.80;99.90;;;;;;5051029;28;20067;-84
2023/03/13 03:11:48;;;;;;;0.05;0.05;;;8.80;99.90;;;;;;5049010;28;20041;-83
2023/03/13 03:14:14;;;;;;;0.00;0.00;;;8.80;99.90;;;;;;5049373;28;20059;-84
2023/03/13 03:16:40;;;;;;;0.22;0.20;;;8.80;99.90;;;;;;5049477;28;20048;-84
2023/03/13 03:19:07;;;;;;;0.20;0.20;;;8.80;99.90;;;;;;5049531;28;20041;-84
2023/03/13 03:21:33;;;;;;;0.00;0.00;;;8.80;99.90;;;;;;5048981;28;20047;-84
2023/03/13 03:23:59;;;;;;;0.20;0.20;;;8.90;99.90;;;;;;5049486;28;20049;-85
2023/03/13 03:26:24;;;;;;;0.00;0.00;;;8.80;99.90;;;;;;5049941;28;20514;-83
2023/03/13 03:28:50;;;;;;;0.10;0.10;;;8.90;99.90;;;;;;5050527;28;20041;-82
2023/03/13 03:31:16;;;;;;;0.13;0.13;;;9.70;99.90;;;;;;5050843;28;20498;-83
2023/03/13 03:33:43;;;;;;;0.00;0.00;;;9.00;99.90;;;;;;5050532;28;20048;-83
2023/03/13 03:36:12;;;;;;;0.22;0.20;;;9.00;99.90;;;;;;5050967;28;20091;-83
2023/03/13 03:38:38;;;;;;;0.00;0.00;;;9.00;99.90;;;;;;5050683;28;20036;-83
2023/03/13 03:41:08;;;;;;;0.00;0.00;;;9.10;99.90;;;;;;5052161;28;20045;-83
2023/03/13 03:43:34;;;;;;;0.20;0.20;;;9.10;99.90;;;;;;5049358;28;20041;-83
2023/03/13 03:46:00;;;;;;;0.00;0.00;;;9.10;99.90;;;;;;5047436;28;20044;-84
2023/03/13 03:48:26;;;;;;;0.00;0.00;;;9.10;99.90;;;;;;5046290;28;20476;-84
2023/03/13 03:50:53;;;;;;;0.00;0.00;;;9.20;99.90;;;;;;5046148;28;20108;-84
2023/03/13 03:53:18;;;;;;;0.00;0.00;;;9.10;99.90;;;;;;5045622;28;20466;-85
2023/03/13 03:55:44;;;;;;;0.00;0.00;;;9.20;99.90;;;;;;5046728;28;20053;-84
2023/03/13 03:58:10;;;;;;;0.00;0.00;;;9.30;99.90;;;;;;5046299;28;20049;-84
2023/03/13 04:00:36;;;;;;;0.00;0.00;;;9.30;99.90;;;;;;5034477;28;20411;-84
2023/03/13 04:03:01;;;;;;;0.00;0.00;;;9.30;99.90;;;;;;5025933;28;20049;-84
2023/03/13 04:05:27;;;;;;;0.03;0.03;;;9.40;99.90;;;;;;5042174;28;20037;-84
2023/03/13 04:07:53;;;;;;;0.90;0.55;;;9.40;99.90;;;;;;5046158;28;20052;-84
2023/03/13 04:10:19;;;;;;;0.05;0.05;;;9.40;99.90;;;;;;5046261;28;20048;-84
2023/03/13 04:12:45;;;;;;;0.00;0.00;;;9.40;99.90;;;;;;5046228;28;20037;-85
2023/03/13 04:15:11;;;;;;;0.13;0.10;;;9.40;99.90;;;;;;5046528;28;20132;-84
2023/03/13 04:17:37;;;;;;;0.20;0.20;;;9.50;99.90;;;;;;5047654;28;20096;-84
2023/03/13 04:20:06;;;;;;;0.10;0.10;;;9.50;99.90;;;;;;5052547;28;20195;-84
2023/03/13 04:22:33;;;;;;;0.10;0.10;;;9.60;99.90;;;;;;5053044;28;20482;-83
2023/03/13 04:24:59;;;;;;;0.10;0.10;;;9.60;99.90;;;;;;5053482;28;20080;-84
2023/03/13 04:27:25;;;;;;;0.05;0.05;;;9.70;99.90;;;;;;5055440;28;20037;-83
2023/03/13 04:29:50;;;;;;;0.13;0.13;;;9.80;99.90;;;;;;5054257;28;20056;-83
2023/03/13 04:32:16;;;;;;;0.22;0.10;;;9.90;99.90;;;;;;5053835;28;20148;-83
2023/03/13 04:34:42;;;;;;;0.00;0.00;;;10.10;99.90;;;;;;5054927;28;20059;-83
2023/03/13 04:37:07;;;;;;;0.32;0.17;;;10.00;99.90;;;;;;5054967;28;20118;-83
2023/03/13 04:39:33;;;;;;;0.35;0.22;;;10.00;99.90;;;;;;5053962;28;20055;-84
2023/03/13 04:41:58;;;;;;;0.43;0.32;;;10.10;99.90;;;;;;5053086;28;20041;-83
2023/03/13 04:44:24;;;;;;;0.43;0.38;;;10.20;99.90;;;;;;5052106;28;20071;-83
2023/03/13 04:46:50;;;;;;;0.22;0.15;;;10.20;99.90;;;;;;5051798;28;20124;-83
2023/03/13 04:49:16;;;;;;;0.05;0.05;;;10.20;99.90;;;;;;5052939;28;20052;-83
2023/03/13 04:51:42;;;;;;;0.20;0.17;;;10.30;99.90;;;;;;5052177;28;20045;-83
2023/03/13 04:54:09;;;;;;;0.00;0.00;;;10.30;99.90;;;;;;5052563;28;20059;-84
2023/03/13 04:56:35;;;;;;;0.25;0.25;;;10.30;99.90;;;;;;5051315;28;20036;-84
2023/03/13 04:59:00;;;;;;;0.00;0.00;;;10.90;99.90;;;;;;5049653;28;20072;-84
2023/03/13 05:01:26;;;;;;;1.30;0.77;;;10.40;99.90;;;;;;5050520;28;20091;-84
2023/03/13 05:03:52;;;;;;;1.48;1.38;;;10.50;99.90;;;;;;5048126;28;20049;-85
2023/03/13 05:06:18;;;;;;;1.65;0.95;;;10.50;99.90;;;;;;5049189;28;20047;-84
2023/03/13 05:08:43;;;;;;;1.73;0.65;;;10.50;99.90;;;;;;5046593;28;20055;-84
2023/03/13 05:11:09;;;;;;;0.38;0.28;;;10.50;99.90;;;;;;5048312;28;20442;-85
2023/03/13 05:13:35;;;;;;;0.10;0.10;;;10.60;99.90;;;;;;5048760;28;20037;-84
2023/03/13 05:16:01;;;;;;;2.20;0.43;;;10.60;99.90;;;;;;5048179;28;20044;-84
2023/03/13 05:18:27;;;;;;;0.20;0.20;;;10.70;99.90;;;;;;5042107;28;20074;-84
2023/03/13 05:20:52;;;;;;;0.03;0.03;;;10.70;99.90;;;;;;5045904;28;20048;-84
2023/03/13 05:23:18;;;;;;;0.43;0.38;;;10.70;99.90;;;;;;5048532;28;21382;-83
2023/03/13 05:25:44;;;;;;;0.35;0.35;;;10.80;99.90;;;;;;5045449;28;20033;-83
2023/03/13 05:28:09;;;;;;;0.32;0.30;;;10.90;99.90;;;;;;5048384;28;20080;-84
2023/03/13 05:30:35;;;;;;;2.22;1.77;;;10.90;99.90;;;;;;5079554;28;20490;-83
2023/03/13 05:33:01;;;;;;;1.13;0.22;;;10.90;99.90;;;;;;5048915;28;20069;-84
2023/03/13 05:35:27;;;;;;;0.00;0.00;;;10.90;99.90;;;;;;5048998;28;20052;-84
2023/03/13 05:37:52;;;;;;;0.30;0.30;;;11.00;99.90;;;;;;5048644;28;20040;-84
2023/03/13 05:40:18;;;;;;;0.20;0.20;;;11.00;99.90;;;;;;5048174;28;20041;-84
2023/03/13 05:42:44;;;;;;;0.38;0.38;;;11.20;99.90;;;;;;5047919;28;20068;-84
2023/03/13 05:45:10;;;;;;;7.03;0.90;;;11.20;99.90;;;;;;5048010;28;20045;-84
2023/03/13 05:47:37;;;;;;;0.88;0.82;;;11.20;99.90;;;;;;5040609;28;20052;-85
2023/03/13 05:50:04;;;;;;;0.20;0.20;;;11.20;99.90;;;;;;5046484;28;20075;-84
2023/03/13 05:52:31;;;;;;;0.30;0.30;;;11.30;99.90;;;;;;5045864;28;20107;-83
2023/03/13 05:54:57;;;;;;;0.00;0.00;;;11.30;99.90;;;;;;5046257;28;20048;-84
2023/03/13 05:57:23;;;;;;;0.45;0.35;;;11.30;99.90;;;;;;5040021;28;20328;-84
2023/03/13 05:59:48;;;;;;;0.63;0.43;;;11.30;99.90;;;;;;5039858;28;20455;-84
2023/03/13 06:02:14;;;;;;;0.15;0.15;;;11.30;99.90;;;;;;5029513;28;20044;-84
2023/03/13 06:04:40;;;;;;;0.10;0.10;;;11.30;99.90;;;;;;5043738;28;20048;-84
2023/03/13 06:07:05;;;;;;;0.20;0.20;;;11.40;99.90;;;;;;5043745;28;20041;-84
2023/03/13 06:09:31;;;;;;;1.17;0.60;;;11.40;99.90;;;;;;5045695;28;20045;-84
2023/03/13 06:11:57;;;;;;;0.10;0.10;;;11.30;99.90;;;;;;5046307;28;20045;-85
2023/03/13 06:14:23;;;;;;;0.32;0.22;;;11.30;99.90;;;;;;5046484;28;20128;-86
2023/03/13 06:16:49;;;;;;;0.50;0.38;;;11.40;99.90;;;;;;5043943;28;20041;-85
2023/03/13 06:19:14;;;;;;;0.32;0.30;;;11.40;99.90;;;;;;5029802;28;20042;-85
2023/03/13 06:21:41;;;;;;;0.20;0.20;;;11.40;99.90;;;;;;5047969;28;20526;-85
2023/03/13 06:24:06;;;;;;;1.20;0.63;;;11.40;99.90;;;;;;5039393;28;20048;-84
2023/03/13 06:26:32;;;;;;;2.92;1.08;;;11.40;99.90;;;;;;5044573;28;20479;-84
2023/03/13 06:28:58;;;;;;;2.35;1.13;;;11.50;99.90;;;;;;5029223;28;20041;-85
2023/03/13 06:31:24;;;;;;;2.50;0.30;;;12.40;99.90;;;;;;5029412;28;20045;-85
2023/03/13 06:33:55;;;;;;;0.00;0.00;;;11.40;99.90;;;;;;5028342;28;20497;-84
2023/03/13 06:36:23;;;;;;;5.47;0.85;;;11.50;99.90;;;;;;5027567;28;20045;-84
2023/03/13 06:38:49;;;;;;;0.70;0.35;;;11.50;99.90;;;;;;5028524;28;20041;-84
2023/03/13 06:41:15;;;;;;;1.45;0.98;;;12.00;99.90;;;;;;5026157;28;20056;-83
2023/03/13 06:43:41;;;;;;;0.32;0.30;;;11.50;99.90;;;;;;5025443;28;20049;-83
2023/03/13 06:46:13;;;;;;;3.13;0.98;;;11.50;99.90;;;;;;5024640;28;20052;-83
2023/03/13 06:48:38;;;;;;;2.50;0.95;;;11.50;99.90;;;;;;5023456;28;20430;-84
2023/03/13 06:51:09;;;;;;;0.13;0.10;;;11.50;99.90;;;;;;5023818;28;20049;-84
2023/03/13 06:53:34;;;;;;;1.65;1.50;;;11.50;99.90;;;;;;5024175;28;20081;-84
2023/03/13 06:56:00;;;;;;;0.90;0.35;;;11.50;99.90;;;;;;5023612;28;20081;-83
2023/03/13 06:58:26;;;;;;;0.43;0.43;;;11.50;99.90;;;;;;5023127;28;20056;-83
2023/03/13 07:00:52;;;;;;;0.15;0.15;;;11.50;99.90;;;;;;5022047;28;20041;-84
2023/03/13 07:03:17;;;;;;;0.22;0.22;;;11.50;99.90;;;;;;5021862;28;20505;-83
2023/03/13 07:05:43;;;;;;;1.10;0.80;;;11.50;99.90;;;;;;5022456;28;20396;-84
2023/03/13 07:08:09;;;;;;;0.40;0.40;;;11.50;99.90;;;;;;5022418;28;20100;-84
2023/03/13 07:10:34;;;;;;;0.00;0.00;;;11.50;99.90;;;;;;5021312;28;20049;-83
2023/03/13 07:13:00;;;;;;;0.22;0.22;;;11.60;99.90;;;;;;5023176;28;20502;-83
2023/03/13 07:15:25;;;;;;;3.08;1.13;;;11.50;99.90;;;;;;5023836;28;20041;-83
2023/03/13 07:17:51;;;;;;;2.15;1.50;;;11.50;99.90;;;;;;5024752;28;20127;-83
2023/03/13 07:20:17;;;;;;;0.38;0.38;;;11.50;99.90;;;;;;5024180;28;20052;-83
2023/03/13 07:22:42;;;;;;;0.03;0.03;;;11.50;99.90;;;;;;5023691;28;20053;-84
2023/03/13 07:25:09;;;;;;;6.32;1.75;;;11.50;99.90;;;;;;5022617;28;20046;-83
2023/03/13 07:27:34;;;;;;;0.65;0.40;;;11.50;99.90;;;;;;5021883;28;20057;-84
2023/03/13 07:30:00;;;;;;;0.65;0.65;;;11.50;99.90;;;;;;5022210;28;20380;-84
2023/03/13 07:32:30;;;;;;;0.82;0.43;;;11.40;99.90;;;;;;5021947;28;20053;-84
2023/03/13 07:34:56;;;;;;;3.35;1.38;;;11.90;99.90;;;;;;5031407;28;20049;-83
2023/03/13 07:37:22;;;;;;;0.30;0.25;;;11.40;99.90;;;;;;5039874;28;20068;-83
2023/03/13 07:39:47;;;;;;;0.00;0.00;;;11.50;99.90;;;;;;5040155;28;20071;-84
2023/03/13 07:42:13;;;;;;;0.10;0.10;;;12.10;99.90;;;;;;5036080;28;20041;-84
2023/03/13 07:44:38;;;;;;;1.00;0.77;;;12.80;99.90;;;;;;5025898;28;20041;-84
2023/03/13 07:47:05;;;;;;;2.75;0.63;;;12.40;99.90;;;;;;5025241;28;20056;-84
2023/03/13 07:49:32;;;;;;;0.10;0.08;;;11.60;99.90;;;;;;5024151;28;20041;-84
2023/03/13 07:51:58;;;;;;;0.25;0.25;;;11.50;99.90;;;;;;5022905;28;20046;-84
2023/03/13 07:54:23;;;;;;;0.00;0.00;;;11.60;99.90;;;;;;5022737;28;20469;-84
2023/03/13 07:56:49;;;;;;;0.45;0.22;;;11.60;99.90;;;;;;5021943;28;20501;-85
2023/03/13 07:59:15;;;;;;;0.85;0.75;;;11.50;99.90;;;;;;5023254;28;20046;-84
2023/03/13 08:01:41;;;;;;;0.13;0.13;;;11.50;99.90;;;;;;5023639;28;20049;-84
2023/03/13 08:04:11;;;;;;;0.13;0.10;;;11.60;99.90;;;;;;5021975;28;20392;-85
2023/03/13 08:06:38;;;;;;;0.65;0.52;;;11.60;99.90;;;;;;5024115;28;20492;-85
2023/03/13 08:09:04;;;;;;;0.00;0.00;;;11.50;99.90;;;;;;5023508;28;20059;-85
2023/03/13 08:11:30;;;;;;;0.38;0.38;;;11.60;99.90;;;;;;5023882;28;20128;-85
2023/03/13 08:13:56;;;;;;;0.10;0.10;;;11.50;99.90;;;;;;5023817;28;20045;-85
2023/03/13 08:16:24;;;;;;;0.00;0.00;;;12.60;99.90;;;;;;5023520;28;20130;-85
2023/03/13 08:18:53;;;;;;;0.60;0.60;;;11.50;99.90;;;;;;5023935;28;20045;-85
2023/03/13 08:21:25;;;;;;;0.00;0.00;;;11.50;99.90;;;;;;5023151;28;20103;-85
2023/03/13 08:23:56;;;;;;;0.30;0.20;;;11.60;99.90;;;;;;5023625;28;20377;-84
2023/03/13 08:26:25;;;;;;;0.00;0.00;;;11.60;99.90;;;;;;5023283;28;20061;-84
2023/03/13 08:28:53;;;;;;;0.10;0.10;;;11.70;99.90;;;;;;5022798;28;20079;-84
2023/03/13 08:31:23;;;;;;;0.08;0.08;;;11.80;99.90;;;;;;5023339;28;20800;-84
2023/03/13 08:33:49;;;;;;;0.10;0.10;;;11.70;99.90;;;;;;5021830;28;20049;-84
2023/03/13 08:36:24;;;;;;;0.20;0.10;;;11.80;99.90;;;;;;5023618;28;20049;-84
2023/03/13 08:38:53;;;;;;;0.70;0.38;;;12.00;99.90;;;;;;5023214;28;20131;-84
2023/03/13 08:41:22;;;;;;;0.52;0.30;;;12.00;99.90;;;;;;5023019;28;20045;-84
2023/03/13 08:43:50;;;;;;;0.00;0.00;;;12.00;99.90;;;;;;5022914;28;20414;-83
2023/03/13 08:46:16;;;;;;;0.05;0.05;;;12.80;99.90;;;;;;5022806;28;20560;-84
2023/03/13 08:48:41;;;;;;;0.43;0.43;;;12.20;99.90;;;;;;5025370;28;20057;-84
2023/03/13 08:51:13;;;;;;;0.03;0.03;;;12.20;99.90;;;;;;5025261;28;20111;-84
2023/03/13 08:53:41;;;;;;;0.00;0.00;;;12.30;99.90;;;;;;5022799;28;20045;-84
2023/03/13 08:56:09;;;;;;;0.43;0.32;;;12.50;99.90;;;;;;5054362;28;20128;-84
2023/03/13 08:58:35;;;;;;;0.38;0.38;;;12.40;99.90;;;;;;5022508;28;20045;-84
2023/03/13 09:01:09;;;;;;;10.00;0.80;;;12.40;99.90;;;;;;5022624;28;20057;-84
2023/03/13 09:03:35;;;;;;;0.32;0.32;;;12.50;99.90;;;;;;5023477;28;20052;-84
2023/03/13 09:06:01;;;;;;;0.03;0.03;;;13.10;99.90;;;;;;5026228;28;20053;-84
2023/03/13 09:08:28;;;;;;;0.00;0.00;;;12.30;99.90;;;;;;5026260;28;20097;-84
2023/03/13 09:10:58;;;;;;;0.15;0.15;;;12.50;99.90;;;;;;5026305;28;20284;-85
2023/03/13 09:13:26;;;;;;;1.13;0.60;;;12.70;99.90;;;;;;5026515;28;20049;-84
2023/03/13 09:16:00;;;;;;;0.00;0.00;;;13.30;99.90;;;;;;5026302;28;20046;-84
2023/03/13 09:18:27;;;;;;;0.80;0.30;;;12.80;99.90;;;;;;5026277;28;20112;-84
2023/03/13 09:20:53;;;;;;;0.00;0.00;;;12.70;1.00;;;;;;5026284;28;20099;-85
2023/03/13 09:23:19;;;;;;;0.20;0.13;;;13.40;21.60;;;;;;5025870;28;20049;-84
2023/03/13 09:25:45;;;;;;;0.20;0.08;;;12.60;99.90;;;;;;5026053;28;20049;-84
2023/03/13 09:28:11;;;;;;;0.60;0.60;;;13.70;99.90;;;;;;5057797;28;20395;-85
2023/03/13 09:30:37;;;;;;;0.00;0.00;;;12.60;59.30;;;;;;5026435;28;20095;-84
2023/03/13 09:33:03;;;;;;;3.20;1.00;;;12.60;1.00;;;;;;5025843;28;20076;-85
2023/03/13 09:35:28;;;;;;;0.00;0.00;;;12.50;99.90;;;;;;5057663;28;20057;-84
2023/03/13 09:37:54;;;;;;;0.00;0.00;;;12.50;99.90;;;;;;5025918;28;20052;-84
2023/03/13 09:40:22;;;;;;;0.00;0.00;;;12.70;74.50;;;;;;5026127;28;20133;-85
2023/03/13 09:42:53;;;;;;;0.35;0.35;;;12.40;99.90;;;;;;5025546;28;20055;-85
2023/03/13 09:45:41;;;;;;;2.35;0.32;;;12.40;1.00;;;;;;5024155;28;20129;-85
2023/03/13 09:48:21;;;;;;;0.40;0.25;;;12.40;99.90;;;;;;5057287;28;20064;-85
2023/03/13 09:50:59;;;;;;;0.00;0.00;;;12.60;99.90;;;;;;5025667;28;20053;-84
2023/03/13 09:54:00;;;;;;;0.05;0.05;;;12.80;1.00;;;;;;5024989;28;20064;-84
2023/03/13 09:56:51;;;;;;;21.25;1.17;;;13.00;68.80;;;;;;5024707;28;20037;-84
2023/03/13 09:59:28;;;;;;;9.52;0.22;;;13.30;99.90;;;;;;5025165;28;20049;-85
2023/03/13 10:01:57;;;;;;;0.40;0.40;;;13.30;99.90;;;;;;5025211;28;20499;-84
2023/03/13 10:04:33;;;;;;;0.20;0.17;;;13.80;99.90;;;;;;5025376;28;20050;-84
2023/03/13 10:06:58;;;;;;;0.00;0.00;;;14.10;99.90;;;;;;5024907;28;20120;-84
2023/03/13 10:09:30;;;;;;;0.10;0.10;;;13.50;99.90;;;;;;5024774;28;20451;-84
2023/03/13 10:12:17;;;;;;;0.13;0.10;;;14.50;1.00;;;;;;5023804;28;20071;-85
2023/03/13 10:14:45;;;;;;;0.43;0.43;;;14.30;92.60;;;;;;5022854;28;20423;-84
2023/03/13 10:17:37;;;;;;;0.28;0.28;;;14.30;1.00;;;;;;5024284;28;20518;-85
2023/03/13 10:20:09;;;;;;;0.60;0.35;;;14.10;99.90;;;;;;5024548;28;20045;-85
2023/03/13 10:22:36;;;;;;;0.30;0.30;;;14.10;99.90;;;;;;5024385;28;20488;-85
2023/03/13 10:25:28;;;;;;;0.55;0.47;;;14.10;99.90;;;;;;5024101;28;20538;-84
2023/03/13 10:27:54;;;;;;;1.77;0.65;;;14.20;66.20;;;;;;5022613;28;20594;-84
2023/03/13 10:30:30;;;;;;;0.50;0.15;;;14.30;1.00;;;;;;5022957;28;20593;-84
2023/03/13 10:33:17;;;;;;;0.25;0.15;;;14.40;99.90;;;;;;5023962;28;20057;-84
2023/03/13 10:35:43;;;;;;;0.80;0.68;;;14.50;99.90;;;;;;5024124;28;20096;-84
2023/03/13 10:38:20;;;;;;;0.43;0.28;;;14.50;99.90;;;;;;5024008;28;20133;-84
2023/03/13 10:41:18;;;;;;;1.25;0.65;;;14.60;99.90;;;;;;5023870;28;20049;-84
2023/03/13 10:43:58;;;;;;;0.60;0.32;;;14.60;99.90;;;;;;5023154;28;20060;-84
2023/03/13 10:46:30;;;;;;;0.10;0.10;;;14.40;99.90;;;;;;5023370;28;20522;-84
2023/03/13 10:48:59;;;;;;;0.35;0.32;;;14.50;99.90;;;;;;5023203;28;20083;-84
2023/03/13 10:51:37;;;;;;;0.65;0.55;;;14.70;56.00;;;;;;5023439;28;20041;-84
2023/03/13 10:54:36;;;;;;;2.95;1.17;;;14.70;1.00;;;;;;5023484;28;20037;-84
2023/03/13 10:57:17;;;;;;;0.25;0.25;;;14.80;1.00;;;;;;5023244;28;20057;-84
2023/03/13 10:59:46;;;;;;;0.15;0.15;;;14.90;1.00;;;;;;5023051;28;20064;-84
2023/03/13 11:02:37;;;;;;;5.68;0.95;;;15.00;1.00;;;;;;5023140;28;20061;-84
2023/03/13 11:05:30;;;;;;;1.00;0.75;;;15.00;99.90;;;;;;5021224;28;20089;-84
2023/03/13 11:07:55;;;;;;;0.30;0.30;;;15.00;1.00;;;;;;5024420;28;20055;-84
2023/03/13 11:10:24;;;;;;;0.00;0.00;;;15.00;99.90;;;;;;5023177;28;20631;-84
2023/03/13 11:12:52;;;;;;;0.55;0.43;;;15.00;99.90;;;;;;5022873;28;20050;-84
2023/03/13 11:15:21;;;;;;;0.10;0.10;;;15.90;99.90;;;;;;5023183;28;20053;-84
2023/03/13 11:17:58;;;;;;;0.10;0.10;;;14.90;99.90;;;;;;5023050;28;20053;-84
2023/03/13 11:20:28;;;;;;;0.25;0.25;;;14.80;99.90;;;;;;5021602;28;20534;-83
2023/03/13 11:22:57;;;;;;;0.43;0.38;;;15.00;1.00;;;;;;5022650;28;20068;-84
2023/03/13 11:25:38;;;;;;;0.08;0.08;;;15.00;99.90;;;;;;5022112;28;20049;-84
2023/03/13 11:28:03;;;;;;;1.00;0.43;;;15.00;1.00;;;;;;5021974;28;20573;-83
2023/03/13 11:30:48;;;;;;;0.45;0.25;;;15.10;1.00;;;;;;5021340;28;20089;-84
2023/03/13 11:33:35;;;;;;;0.45;0.43;;;15.10;1.00;;;;;;5022925;28;20049;-84
2023/03/13 11:36:13;;;;;;;0.80;0.47;;;15.10;1.00;;;;;;5023178;28;20164;-83
2023/03/13 11:38:42;;;;;;;1.85;1.30;;;15.20;1.00;;;;;;5023258;28;20183;-83
2023/03/13 11:41:10;;;;;;;0.00;0.00;;;15.20;1.00;;;;;;5023192;28;20050;-83
2023/03/13 11:44:06;;;;;;;0.00;0.00;;;15.30;1.00;;;;;;5021933;28;20132;-84
2023/03/13 11:47:04;;;;;;;2.70;0.63;;;15.30;1.00;;;;;;5022784;28;20045;-83
2023/03/13 11:50:07;;;;;;;0.63;0.35;;;15.40;1.00;;;;;;5021611;28;20062;-84
2023/03/13 11:53:01;;;;;;;0.20;0.20;;;15.50;1.00;;;;;;5023814;28;20059;-83
2023/03/13 11:55:52;;;;;;;0.00;0.00;;;15.60;1.00;;;;;;5024827;28;20061;-83
2023/03/13 11:58:20;;;;;;;1.30;0.55;;;15.90;1.00;;;;;;5023211;28;20049;-84
2023/03/13 12:01:05;;;;;;;0.63;0.63;;;16.10;1.00;;;;;;5023858;28;20061;-83
2023/03/13 12:03:36;;;;;;;0.10;0.10;;;16.30;99.90;;;;;;5023122;28;20045;-83
2023/03/13 12:06:04;;;;;;;10.02;0.60;;;16.50;99.90;;;;;;5022148;28;20106;-83
2023/03/13 12:08:41;;;;;;;0.00;0.00;;;16.40;99.90;;;;;;5024282;28;20077;-83
2023/03/13 12:11:25;;;;;;;1.55;1.35;;;16.30;99.90;;;;;;5024729;28;20061;-83
2023/03/13 12:13:58;;;;;;;0.10;0.10;;;16.20;99.90;;;;;;5025443;28;20052;-83
2023/03/13 12:16:37;;;;;;;2.42;0.40;;;16.30;99.90;;;;;;5028496;28;20152;-83
2023/03/13 12:19:03;;;;;;;0.22;0.20;;;16.30;99.90;;;;;;5028998;28;20057;-82
2023/03/13 12:21:42;;;;;;;0.90;0.70;;;16.20;99.90;;;;;;5029690;28;20498;-83
2023/03/13 12:24:26;;;;;;;1.30;0.57;;;16.60;99.90;;;;;;5030933;28;20080;-82
2023/03/13 12:26:55;;;;;;;0.05;0.05;;;16.30;99.90;;;;;;5031114;28;20430;-83
2023/03/13 12:29:46;;;;;;;0.00;0.00;;;16.50;99.90;;;;;;5030980;28;20132;-83
2023/03/13 12:32:12;;;;;;;0.45;0.25;;;16.60;99.90;;;;;;5031415;28;20045;-82
2023/03/13 12:35:01;;;;;;;0.00;0.00;;;16.60;99.90;;;;;;5031978;28;20129;-82
2023/03/13 12:37:49;;;;;;;0.00;0.00;;;16.60;99.90;;;;;;5031428;28;20041;-82
2023/03/13 12:40:28;;;;;;;1.15;0.43;;;16.50;99.90;;;;;;5036114;28;20489;-83
2023/03/13 12:43:00;;;;;;;0.25;0.20;;;16.60;99.90;;;;;;5066277;28;20049;-82
2023/03/13 12:45:28;;;;;;;0.25;0.25;;;16.70;99.90;;;;;;5035442;28;20038;-82
2023/03/13 12:48:03;;;;;;;0.40;0.20;;;16.60;99.90;;;;;;5035688;28;20057;-82
2023/03/13 12:50:46;;;;;;;0.93;0.75;;;16.60;99.90;;;;;;5035440;28;20052;-82
2023/03/13 12:53:38;;;;;;;0.17;0.17;;;16.40;99.90;;;;;;5036897;28;20061;-82
2023/03/13 12:56:16;;;;;;;3.53;1.48;;;16.40;99.90;;;;;;5037354;28;20068;-82
2023/03/13 12:59:01;;;;;;;3.53;0.45;;;16.50;99.90;;;;;;5067993;28;20145;-82
2023/03/13 13:01:36;;;;;;;0.00;0.00;;;16.60;99.90;;;;;;5035200;28;20441;-82
2023/03/13 13:04:18;;;;;;;1.95;0.32;;;16.90;99.90;;;;;;5036182;28;20041;-82